Погода Мэйвудна неделю

Калифорния, США

01 - 07 сентября
  • 01сентября
    Сегодня
    +17°
    +28°
    Ясно и безоблачно
    ВремяПогодаТемператураВлажностьДавлениеВетер, м/сВероятность осадков
    02:00Ясно и безоблачно+20°C79 %757 мм0.7 м/с2 %
    05:00Ясно и безоблачно+18°C88 %756 мм0.2 м/с2 %
    08:00Ясно и безоблачно+20°C84 %757 мм0.4 м/с2 %
    11:00Ясно и безоблачно+25°C40 %758 мм0.9 м/с2 %
    14:00Ясно и безоблачно+28°C36 %757 мм3.2 м/с2 %
    17:00Ясно и безоблачно+26°C37 %756 мм3.3 м/с2 %
    20:00Ясно и безоблачно+22°C59 %756 мм2.5 м/с2 %
    23:00Ясно и безоблачно+20°C71 %757 мм1.0 м/с2 %
  • 02сентября
    Среда
    +19°
    +30°
    Ясно и безоблачно
    ВремяПогодаТемператураВлажностьДавлениеВетер, м/сВероятность осадков
    02:00Ясно и безоблачно+20°C76 %758 мм1.1 м/с2 %
    05:00Ясно и безоблачно+19°C80 %757 мм0.9 м/с2 %
    08:00Ясно и безоблачно+19°C75 %758 мм0.7 м/с2 %
    11:00Ясно и безоблачно+25°C46 %758 мм1.2 м/с2 %
    14:00Ясно и безоблачно+29°C34 %757 мм2.5 м/с2 %
    17:00Ясно и безоблачно+28°C36 %756 мм2.9 м/с2 %
    20:00Ясно и безоблачно+23°C46 %756 мм1.7 м/с2 %
    23:00Ясно и безоблачно+22°C62 %757 мм1.0 м/с2 %
  • 03сентября
    Четверг
    +19°
    +30°
    Ясно и безоблачно
    ВремяПогодаТемператураВлажностьДавлениеВетер, м/сВероятность осадков
    02:00Ясно и безоблачно+21°C73 %756 мм1.0 м/с2 %
    05:00Ясно и безоблачно+20°C78 %756 мм0.9 м/с2 %
    08:00Практически безоблачно+21°C79 %757 мм1.4 м/с2 %
    11:00Ясно и безоблачно+25°C45 %756 мм1.5 м/с2 %
    14:00Ясно и безоблачно+29°C33 %755 мм2.6 м/с2 %
    17:00Ясно и безоблачно+27°C54 %754 мм3.2 м/с2 %
    20:00Ясно и безоблачно+23°C67 %754 мм2.0 м/с2 %
    23:00Ясно и безоблачно+21°C76 %755 мм1.1 м/с2 %
  • 04сентября
    Пятница
    +19°
    +30°
    Ясно и безоблачно
    ВремяПогодаТемператураВлажностьДавлениеВетер, м/сВероятность осадков
    02:00Ясно и безоблачно+21°C80 %755 мм0.3 м/с2 %
    05:00Ясно и безоблачно+20°C87 %755 мм1.3 м/с2 %
    08:00Ясно и безоблачно+21°C78 %756 мм0.6 м/с2 %
    11:00Ясно и безоблачно+25°C47 %756 мм1.8 м/с2 %
    14:00Ясно и безоблачно+30°C32 %755 мм2.2 м/с2 %
    17:00Ясно и безоблачно+28°C39 %754 мм2.9 м/с2 %
    20:00Ясно и безоблачно+23°C59 %755 мм1.9 м/с2 %
    23:00Ясно и безоблачно+22°C67 %756 мм1.2 м/с2 %
  • 05сентября
    Суббота
    +22°
    +32°
    Ясно и безоблачно
    ВремяПогодаТемператураВлажностьДавлениеВетер, м/сВероятность осадков
    02:00Ясно и безоблачно+21°C73 %756 мм1.0 м/с2 %
    05:00Ясно и безоблачно+20°C82 %755 мм0.1 м/с5 %
    08:00Ясно и безоблачно+21°C70 %756 мм0.3 м/с12 %
    11:00Ясно и безоблачно+27°C26 %756 мм0.6 м/с14 %
    14:00Ясно и безоблачно+32°C17 %755 мм2.2 м/с20 %
    17:00Ясно и безоблачно+30°C26 %754 мм3.2 м/с18 %
    20:00Ясно и безоблачно+25°C41 %755 мм2.1 м/с18 %
    23:00Ясно и безоблачно+23°C50 %756 мм1.0 м/с19 %
  • 06сентября
    Воскресенье
    +19°
    +31°
    Ясно и безоблачно
    ВремяПогодаТемператураВлажностьДавлениеВетер, м/сВероятность осадков
    05:00Практически безоблачно+23°C59 %755 мм0.1 м/с32 %
    11:00Ясно и безоблачно+29°C31 %756 мм1.0 м/с39 %
    17:00Ясно и безоблачно+29°C33 %754 мм3.4 м/с33 %
    23:00Ясно и безоблачно+22°C64 %755 мм1.7 м/с24 %
  • 07сентября
    Понедельник
    +18°
    +32°
    Ясно и безоблачно
    ВремяПогодаТемператураВлажностьДавлениеВетер, м/сВероятность осадков
    05:00Ясно и безоблачно+20°C77 %755 мм1.5 м/с19 %
    11:00Ясно и безоблачно+28°C44 %756 мм2.2 м/с28 %
    17:00Ясно и безоблачно+29°C38 %754 мм3.7 м/с22 %
    23:00Ясно и безоблачно+21°C71 %755 мм1.7 м/с14 %
Мы используем cookies
Соглашаюсь